sensor_id;sensor_type;location;lat;lon;timestamp;P1;durP1;ratioP1;P2;durP2;ratioP2
83125;SDS011;73488;47.234;-1.540;2024-03-23T00:54:01;3.50;;;1.30;;
83125;SDS011;73488;47.234;-1.540;2024-03-23T00:56:28;3.35;;;2.15;;
83125;SDS011;73488;47.234;-1.540;2024-03-23T00:58:53;3.65;;;2.53;;
83125;SDS011;73488;47.234;-1.540;2024-03-23T01:01:19;4.22;;;2.45;;
83125;SDS011;73488;47.234;-1.540;2024-03-23T01:03:44;3.90;;;2.20;;
83125;SDS011;73488;47.234;-1.540;2024-03-23T01:06:09;3.50;;;2.10;;
83125;SDS011;73488;47.234;-1.540;2024-03-23T01:08:35;2.88;;;2.35;;
83125;SDS011;73488;47.234;-1.540;2024-03-23T01:11:00;3.25;;;2.00;;
83125;SDS011;73488;47.234;-1.540;2024-03-23T01:13:27;3.05;;;1.88;;
83125;SDS011;73488;47.234;-1.540;2024-03-23T01:15:53;2.95;;;2.40;;
83125;SDS011;73488;47.234;-1.540;2024-03-23T01:18:20;3.83;;;2.38;;
83125;SDS011;73488;47.234;-1.540;2024-03-23T01:20:46;4.13;;;2.38;;
83125;SDS011;73488;47.234;-1.540;2024-03-23T01:23:11;3.25;;;2.03;;
83125;SDS011;73488;47.234;-1.540;2024-03-23T01:25:37;5.32;;;1.42;;
83125;SDS011;73488;47.234;-1.540;2024-03-23T01:28:03;3.38;;;2.47;;
83125;SDS011;73488;47.234;-1.540;2024-03-23T01:30:28;4.60;;;1.95;;
83125;SDS011;73488;47.234;-1.540;2024-03-23T01:32:54;4.43;;;2.22;;
83125;SDS011;73488;47.234;-1.540;2024-03-23T01:35:20;4.15;;;2.53;;
83125;SDS011;73488;47.234;-1.540;2024-03-23T01:37:45;4.75;;;2.40;;
83125;SDS011;73488;47.234;-1.540;2024-03-23T01:40:10;4.07;;;2.28;;
83125;SDS011;73488;47.234;-1.540;2024-03-23T01:42:38;2.90;;;2.00;;
83125;SDS011;73488;47.234;-1.540;2024-03-23T01:45:05;4.75;;;2.17;;
83125;SDS011;73488;47.234;-1.540;2024-03-23T01:47:32;3.30;;;2.03;;
83125;SDS011;73488;47.234;-1.540;2024-03-23T01:49:58;4.18;;;2.17;;
83125;SDS011;73488;47.234;-1.540;2024-03-23T01:52:24;2.53;;;2.10;;
83125;SDS011;73488;47.234;-1.540;2024-03-23T01:54:50;4.70;;;2.38;;
83125;SDS011;73488;47.234;-1.540;2024-03-23T01:57:15;5.75;;;2.33;;
83125;SDS011;73488;47.234;-1.540;2024-03-23T01:59:41;4.10;;;2.38;;
83125;SDS011;73488;47.234;-1.540;2024-03-23T02:02:07;3.92;;;1.48;;
83125;SDS011;73488;47.234;-1.540;2024-03-23T02:04:32;5.88;;;2.55;;
83125;SDS011;73488;47.234;-1.540;2024-03-23T02:06:58;4.13;;;2.25;;
83125;SDS011;73488;47.234;-1.540;2024-03-23T02:09:23;3.10;;;2.38;;
83125;SDS011;73488;47.234;-1.540;2024-03-23T02:11:48;4.22;;;2.42;;
83125;SDS011;73488;47.234;-1.540;2024-03-23T02:14:14;4.85;;;2.20;;
83125;SDS011;73488;47.234;-1.540;2024-03-23T02:16:39;3.53;;;2.28;;
83125;SDS011;73488;47.234;-1.540;2024-03-23T02:19:04;3.25;;;2.30;;
83125;SDS011;73488;47.234;-1.540;2024-03-23T02:21:30;4.15;;;2.17;;
83125;SDS011;73488;47.234;-1.540;2024-03-23T02:23:57;3.10;;;2.45;;
83125;SDS011;73488;47.234;-1.540;2024-03-23T02:26:23;3.67;;;2.22;;
83125;SDS011;73488;47.234;-1.540;2024-03-23T02:28:49;4.50;;;2.33;;
83125;SDS011;73488;47.234;-1.540;2024-03-23T02:31:14;4.10;;;2.28;;
83125;SDS011;73488;47.234;-1.540;2024-03-23T02:33:40;4.18;;;2.42;;
83125;SDS011;73488;47.234;-1.540;2024-03-23T02:36:06;3.05;;;2.05;;
83125;SDS011;73488;47.234;-1.540;2024-03-23T02:38:32;4.07;;;2.60;;
83125;SDS011;73488;47.234;-1.540;2024-03-23T02:41:02;4.07;;;2.53;;
83125;SDS011;73488;47.234;-1.540;2024-03-23T02:43:28;4.65;;;2.10;;
83125;SDS011;73488;47.234;-1.540;2024-03-23T02:45:53;3.72;;;2.42;;
83125;SDS011;73488;47.234;-1.540;2024-03-23T02:48:19;4.97;;;1.95;;
83125;SDS011;73488;47.234;-1.540;2024-03-23T02:50:44;4.90;;;2.40;;
83125;SDS011;73488;47.234;-1.540;2024-03-23T02:53:09;4.28;;;1.65;;
83125;SDS011;73488;47.234;-1.540;2024-03-23T02:55:35;3.47;;;2.40;;
83125;SDS011;73488;47.234;-1.540;2024-03-23T02:58:01;3.15;;;2.60;;
83125;SDS011;73488;47.234;-1.540;2024-03-23T03:00:27;5.85;;;2.13;;
83125;SDS011;73488;47.234;-1.540;2024-03-23T03:02:53;4.15;;;2.42;;
83125;SDS011;73488;47.234;-1.540;2024-03-23T03:05:18;4.53;;;2.78;;
83125;SDS011;73488;47.234;-1.540;2024-03-23T03:07:44;5.50;;;2.75;;
83125;SDS011;73488;47.234;-1.540;2024-03-23T03:10:09;4.22;;;2.47;;
83125;SDS011;73488;47.234;-1.540;2024-03-23T03:12:36;2.92;;;2.08;;
83125;SDS011;73488;47.234;-1.540;2024-03-23T03:15:02;4.25;;;2.17;;
83125;SDS011;73488;47.234;-1.540;2024-03-23T03:17:29;3.30;;;2.22;;
83125;SDS011;73488;47.234;-1.540;2024-03-23T03:19:55;4.78;;;2.47;;
83125;SDS011;73488;47.234;-1.540;2024-03-23T03:22:21;3.92;;;2.17;;
83125;SDS011;73488;47.234;-1.540;2024-03-23T03:27:14;5.70;;;1.60;;
83125;SDS011;73488;47.234;-1.540;2024-03-23T03:29:40;4.05;;;2.10;;
83125;SDS011;73488;47.234;-1.540;2024-03-23T03:32:05;2.83;;;2.15;;
83125;SDS011;73488;47.234;-1.540;2024-03-23T03:34:31;3.33;;;2.25;;
83125;SDS011;73488;47.234;-1.540;2024-03-23T03:36:57;5.30;;;1.85;;
83125;SDS011;73488;47.234;-1.540;2024-03-23T03:39:22;4.00;;;2.38;;
83125;SDS011;73488;47.234;-1.540;2024-03-23T03:41:48;3.70;;;1.95;;
83125;SDS011;73488;47.234;-1.540;2024-03-23T03:44:14;4.60;;;2.05;;
83125;SDS011;73488;47.234;-1.540;2024-03-23T03:46:39;3.75;;;2.28;;
83125;SDS011;73488;47.234;-1.540;2024-03-23T03:49:05;3.78;;;1.45;;
83125;SDS011;73488;47.234;-1.540;2024-03-23T03:51:30;3.88;;;2.20;;
83125;SDS011;73488;47.234;-1.540;2024-03-23T03:53:56;3.58;;;2.15;;
83125;SDS011;73488;47.234;-1.540;2024-03-23T03:56:21;4.47;;;2.28;;
83125;SDS011;73488;47.234;-1.540;2024-03-23T03:58:47;3.08;;;2.17;;
83125;SDS011;73488;47.234;-1.540;2024-03-23T04:01:13;3.17;;;2.15;;
83125;SDS011;73488;47.234;-1.540;2024-03-23T04:03:38;3.38;;;2.05;;
83125;SDS011;73488;47.234;-1.540;2024-03-23T04:06:08;4.15;;;2.20;;
83125;SDS011;73488;47.234;-1.540;2024-03-23T04:08:34;4.18;;;2.53;;
83125;SDS011;73488;47.234;-1.540;2024-03-23T04:10:59;3.45;;;1.38;;
83125;SDS011;73488;47.234;-1.540;2024-03-23T04:13:24;3.88;;;2.40;;
83125;SDS011;73488;47.234;-1.540;2024-03-23T04:15:53;5.35;;;1.88;;
83125;SDS011;73488;47.234;-1.540;2024-03-23T04:18:19;3.30;;;2.03;;
83125;SDS011;73488;47.234;-1.540;2024-03-23T04:20:45;3.50;;;1.85;;
83125;SDS011;73488;47.234;-1.540;2024-03-23T04:23:10;3.80;;;2.58;;
83125;SDS011;73488;47.234;-1.540;2024-03-23T04:25:36;3.30;;;1.88;;
83125;SDS011;73488;47.234;-1.540;2024-03-23T04:28:01;5.32;;;1.40;;
83125;SDS011;73488;47.234;-1.540;2024-03-23T04:30:26;3.65;;;2.55;;
83125;SDS011;73488;47.234;-1.540;2024-03-23T04:32:54;5.20;;;2.50;;
83125;SDS011;73488;47.234;-1.540;2024-03-23T04:35:19;4.30;;;2.30;;
83125;SDS011;73488;47.234;-1.540;2024-03-23T04:37:47;3.55;;;1.80;;
83125;SDS011;73488;47.234;-1.540;2024-03-23T04:40:12;3.95;;;2.20;;
83125;SDS011;73488;47.234;-1.540;2024-03-23T04:42:38;2.67;;;2.00;;
83125;SDS011;73488;47.234;-1.540;2024-03-23T04:45:04;3.70;;;2.03;;
83125;SDS011;73488;47.234;-1.540;2024-03-23T04:47:31;5.82;;;2.65;;
83125;SDS011;73488;47.234;-1.540;2024-03-23T04:49:56;5.25;;;2.45;;
83125;SDS011;73488;47.234;-1.540;2024-03-23T04:52:22;3.97;;;1.92;;
83125;SDS011;73488;47.234;-1.540;2024-03-23T04:54:47;3.70;;;2.15;;
83125;SDS011;73488;47.234;-1.540;2024-03-23T04:57:12;4.53;;;2.00;;
83125;SDS011;73488;47.234;-1.540;2024-03-23T04:59:38;3.53;;;1.90;;
83125;SDS011;73488;47.234;-1.540;2024-03-23T05:02:03;3.28;;;2.25;;
83125;SDS011;73488;47.234;-1.540;2024-03-23T05:04:29;4.65;;;2.45;;
83125;SDS011;73488;47.234;-1.540;2024-03-23T05:06:54;5.25;;;2.85;;
83125;SDS011;73488;47.234;-1.540;2024-03-23T05:09:20;2.85;;;2.45;;
83125;SDS011;73488;47.234;-1.540;2024-03-23T05:11:46;4.28;;;2.58;;
83125;SDS011;73488;47.234;-1.540;2024-03-23T05:14:14;3.47;;;2.08;;
83125;SDS011;73488;47.234;-1.540;2024-03-23T05:16:40;5.63;;;2.60;;
83125;SDS011;73488;47.234;-1.540;2024-03-23T05:19:05;4.82;;;2.38;;
83125;SDS011;73488;47.234;-1.540;2024-03-23T05:21:31;6.00;;;2.47;;
83125;SDS011;73488;47.234;-1.540;2024-03-23T05:23:56;4.25;;;2.17;;
83125;SDS011;73488;47.234;-1.540;2024-03-23T05:26:22;4.22;;;3.10;;
83125;SDS011;73488;47.234;-1.540;2024-03-23T05:28:48;4.57;;;2.75;;
83125;SDS011;73488;47.234;-1.540;2024-03-23T05:31:22;3.05;;;1.77;;
83125;SDS011;73488;47.234;-1.540;2024-03-23T05:33:48;2.85;;;1.55;;
83125;SDS011;73488;47.234;-1.540;2024-03-23T05:36:13;4.07;;;2.42;;
83125;SDS011;73488;47.234;-1.540;2024-03-23T05:38:39;3.67;;;1.77;;
83125;SDS011;73488;47.234;-1.540;2024-03-23T05:41:04;3.78;;;1.40;;
83125;SDS011;73488;47.234;-1.540;2024-03-23T05:43:30;3.80;;;2.47;;
83125;SDS011;73488;47.234;-1.540;2024-03-23T05:45:56;5.05;;;2.28;;
83125;SDS011;73488;47.234;-1.540;2024-03-23T05:48:22;3.13;;;2.13;;
83125;SDS011;73488;47.234;-1.540;2024-03-23T05:50:48;3.42;;;2.40;;
83125;SDS011;73488;47.234;-1.540;2024-03-23T05:53:17;4.22;;;2.35;;
83125;SDS011;73488;47.234;-1.540;2024-03-23T05:55:43;5.32;;;2.38;;
83125;SDS011;73488;47.234;-1.540;2024-03-23T05:58:08;3.85;;;2.30;;
83125;SDS011;73488;47.234;-1.540;2024-03-23T06:00:35;3.22;;;2.08;;
83125;SDS011;73488;47.234;-1.540;2024-03-23T06:03:00;5.90;;;2.97;;
83125;SDS011;73488;47.234;-1.540;2024-03-23T06:05:26;4.70;;;2.08;;
83125;SDS011;73488;47.234;-1.540;2024-03-23T06:07:52;2.88;;;2.08;;
83125;SDS011;73488;47.234;-1.540;2024-03-23T06:10:17;3.33;;;1.85;;
83125;SDS011;73488;47.234;-1.540;2024-03-23T06:12:43;3.03;;;2.17;;
83125;SDS011;73488;47.234;-1.540;2024-03-23T06:15:08;3.80;;;2.38;;
83125;SDS011;73488;47.234;-1.540;2024-03-23T06:17:38;4.70;;;2.50;;
83125;SDS011;73488;47.234;-1.540;2024-03-23T06:20:04;5.05;;;2.40;;
83125;SDS011;73488;47.234;-1.540;2024-03-23T06:22:31;4.50;;;2.75;;
83125;SDS011;73488;47.234;-1.540;2024-03-23T06:24:57;3.95;;;2.20;;
83125;SDS011;73488;47.234;-1.540;2024-03-23T06:27:22;4.15;;;2.00;;
83125;SDS011;73488;47.234;-1.540;2024-03-23T06:29:48;3.00;;;2.72;;
83125;SDS011;73488;47.234;-1.540;2024-03-23T06:32:13;4.68;;;2.38;;
83125;SDS011;73488;47.234;-1.540;2024-03-23T06:34:41;4.10;;;2.00;;
83125;SDS011;73488;47.234;-1.540;2024-03-23T06:37:06;4.43;;;2.17;;
83125;SDS011;73488;47.234;-1.540;2024-03-23T06:39:34;3.58;;;1.83;;
83125;SDS011;73488;47.234;-1.540;2024-03-23T06:42:03;2.97;;;2.00;;
83125;SDS011;73488;47.234;-1.540;2024-03-23T06:44:28;5.03;;;2.33;;
83125;SDS011;73488;47.234;-1.540;2024-03-23T06:46:54;3.35;;;2.15;;
83125;SDS011;73488;47.234;-1.540;2024-03-23T06:49:19;3.42;;;2.13;;
83125;SDS011;73488;47.234;-1.540;2024-03-23T06:51:45;3.30;;;1.88;;
83125;SDS011;73488;47.234;-1.540;2024-03-23T06:54:11;4.15;;;2.28;;
83125;SDS011;73488;47.234;-1.540;2024-03-23T06:56:36;6.05;;;1.98;;
83125;SDS011;73488;47.234;-1.540;2024-03-23T06:59:01;2.58;;;2.22;;
83125;SDS011;73488;47.234;-1.540;2024-03-23T07:01:27;3.17;;;1.77;;
83125;SDS011;73488;47.234;-1.540;2024-03-23T07:03:53;3.42;;;1.83;;
83125;SDS011;73488;47.234;-1.540;2024-03-23T07:06:19;3.80;;;2.00;;
83125;SDS011;73488;47.234;-1.540;2024-03-23T07:08:44;4.32;;;2.53;;
83125;SDS011;73488;47.234;-1.540;2024-03-23T07:11:10;2.60;;;2.20;;
83125;SDS011;73488;47.234;-1.540;2024-03-23T07:13:35;4.30;;;2.25;;
83125;SDS011;73488;47.234;-1.540;2024-03-23T07:16:01;4.68;;;2.63;;
83125;SDS011;73488;47.234;-1.540;2024-03-23T07:18:26;4.10;;;1.67;;
83125;SDS011;73488;47.234;-1.540;2024-03-23T07:20:55;5.88;;;2.50;;
83125;SDS011;73488;47.234;-1.540;2024-03-23T07:23:21;5.78;;;1.90;;
83125;SDS011;73488;47.234;-1.540;2024-03-23T07:25:55;3.25;;;1.90;;
83125;SDS011;73488;47.234;-1.540;2024-03-23T07:28:24;4.47;;;2.08;;
83125;SDS011;73488;47.234;-1.540;2024-03-23T07:31:06;8.65;;;2.20;;
83125;SDS011;73488;47.234;-1.540;2024-03-23T07:33:31;7.35;;;2.92;;
83125;SDS011;73488;47.234;-1.540;2024-03-23T07:35:57;7.80;;;4.05;;
83125;SDS011;73488;47.234;-1.540;2024-03-23T07:38:24;8.93;;;3.95;;
83125;SDS011;73488;47.234;-1.540;2024-03-23T07:40:50;10.80;;;4.95;;
83125;SDS011;73488;47.234;-1.540;2024-03-23T07:43:20;8.77;;;5.10;;
83125;SDS011;73488;47.234;-1.540;2024-03-23T07:45:51;9.55;;;4.60;;
83125;SDS011;73488;47.234;-1.540;2024-03-23T07:48:17;11.18;;;5.28;;
83125;SDS011;73488;47.234;-1.540;2024-03-23T07:50:43;10.00;;;4.25;;
83125;SDS011;73488;47.234;-1.540;2024-03-23T07:53:08;11.07;;;6.13;;
83125;SDS011;73488;47.234;-1.540;2024-03-23T07:55:34;12.23;;;6.55;;
83125;SDS011;73488;47.234;-1.540;2024-03-23T07:57:59;10.00;;;5.80;;
83125;SDS011;73488;47.234;-1.540;2024-03-23T08:00:24;10.40;;;6.25;;
83125;SDS011;73488;47.234;-1.540;2024-03-23T08:02:51;9.82;;;5.75;;
83125;SDS011;73488;47.234;-1.540;2024-03-23T08:05:16;9.32;;;6.25;;
83125;SDS011;73488;47.234;-1.540;2024-03-23T08:07:42;12.38;;;5.55;;
83125;SDS011;73488;47.234;-1.540;2024-03-23T08:10:07;9.65;;;5.15;;
83125;SDS011;73488;47.234;-1.540;2024-03-23T08:12:32;9.77;;;5.95;;
83125;SDS011;73488;47.234;-1.540;2024-03-23T08:14:58;9.82;;;5.25;;
83125;SDS011;73488;47.234;-1.540;2024-03-23T08:17:23;9.40;;;5.00;;
83125;SDS011;73488;47.234;-1.540;2024-03-23T08:19:48;9.55;;;5.85;;
83125;SDS011;73488;47.234;-1.540;2024-03-23T08:22:14;11.45;;;4.75;;
83125;SDS011;73488;47.234;-1.540;2024-03-23T08:24:39;13.63;;;4.80;;
83125;SDS011;73488;47.234;-1.540;2024-03-23T08:27:05;9.93;;;4.75;;
83125;SDS011;73488;47.234;-1.540;2024-03-23T08:29:30;14.27;;;5.53;;
83125;SDS011;73488;47.234;-1.540;2024-03-23T08:31:56;11.40;;;6.32;;
83125;SDS011;73488;47.234;-1.540;2024-03-23T08:34:22;12.18;;;4.53;;
83125;SDS011;73488;47.234;-1.540;2024-03-23T08:36:47;14.52;;;5.68;;
83125;SDS011;73488;47.234;-1.540;2024-03-23T08:39:12;9.50;;;5.35;;
83125;SDS011;73488;47.234;-1.540;2024-03-23T08:41:38;8.07;;;5.32;;
83125;SDS011;73488;47.234;-1.540;2024-03-23T08:44:03;11.10;;;4.75;;
83125;SDS011;73488;47.234;-1.540;2024-03-23T08:46:29;9.93;;;4.82;;
83125;SDS011;73488;47.234;-1.540;2024-03-23T08:48:54;9.32;;;4.57;;
83125;SDS011;73488;47.234;-1.540;2024-03-23T08:51:19;11.05;;;5.15;;
83125;SDS011;73488;47.234;-1.540;2024-03-23T08:53:45;19.45;;;4.72;;
83125;SDS011;73488;47.234;-1.540;2024-03-23T08:56:11;12.68;;;4.82;;
83125;SDS011;73488;47.234;-1.540;2024-03-23T08:58:37;13.40;;;4.75;;
83125;SDS011;73488;47.234;-1.540;2024-03-23T09:01:04;9.45;;;4.28;;
83125;SDS011;73488;47.234;-1.540;2024-03-23T09:03:40;14.40;;;4.88;;
83125;SDS011;73488;47.234;-1.540;2024-03-23T09:06:12;14.95;;;4.65;;
83125;SDS011;73488;47.234;-1.540;2024-03-23T09:08:39;12.13;;;4.30;;
83125;SDS011;73488;47.234;-1.540;2024-03-23T09:11:09;11.07;;;4.20;;
83125;SDS011;73488;47.234;-1.540;2024-03-23T09:13:35;11.57;;;5.18;;
83125;SDS011;73488;47.234;-1.540;2024-03-23T09:16:02;10.93;;;4.97;;
83125;SDS011;73488;47.234;-1.540;2024-03-23T09:18:31;9.85;;;4.40;;
83125;SDS011;73488;47.234;-1.540;2024-03-23T09:20:57;10.70;;;4.18;;
83125;SDS011;73488;47.234;-1.540;2024-03-23T09:23:22;11.43;;;4.13;;
83125;SDS011;73488;47.234;-1.540;2024-03-23T09:25:47;10.13;;;4.32;;
83125;SDS011;73488;47.234;-1.540;2024-03-23T09:28:13;8.27;;;4.00;;
83125;SDS011;73488;47.234;-1.540;2024-03-23T09:30:38;13.50;;;4.25;;
83125;SDS011;73488;47.234;-1.540;2024-03-23T09:33:10;10.38;;;4.85;;
83125;SDS011;73488;47.234;-1.540;2024-03-23T09:35:39;9.32;;;3.58;;
83125;SDS011;73488;47.234;-1.540;2024-03-23T09:38:05;10.48;;;3.85;;
83125;SDS011;73488;47.234;-1.540;2024-03-23T09:40:32;8.25;;;4.25;;
83125;SDS011;73488;47.234;-1.540;2024-03-23T09:42:58;7.75;;;3.00;;
83125;SDS011;73488;47.234;-1.540;2024-03-23T09:45:28;10.77;;;4.15;;
83125;SDS011;73488;47.234;-1.540;2024-03-23T09:47:56;8.60;;;4.05;;
83125;SDS011;73488;47.234;-1.540;2024-03-23T09:50:22;9.02;;;4.20;;
83125;SDS011;73488;47.234;-1.540;2024-03-23T09:52:48;7.57;;;3.75;;
83125;SDS011;73488;47.234;-1.540;2024-03-23T09:55:13;8.85;;;4.00;;
83125;SDS011;73488;47.234;-1.540;2024-03-23T09:57:39;5.68;;;3.65;;
83125;SDS011;73488;47.234;-1.540;2024-03-23T10:00:05;7.45;;;4.43;;
83125;SDS011;73488;47.234;-1.540;2024-03-23T10:02:31;9.55;;;3.67;;
83125;SDS011;73488;47.234;-1.540;2024-03-23T10:04:57;8.65;;;3.20;;
83125;SDS011;73488;47.234;-1.540;2024-03-23T10:07:22;7.10;;;3.50;;
83125;SDS011;73488;47.234;-1.540;2024-03-23T10:09:48;10.30;;;4.18;;
83125;SDS011;73488;47.234;-1.540;2024-03-23T10:12:14;8.57;;;3.72;;
83125;SDS011;73488;47.234;-1.540;2024-03-23T10:14:40;6.53;;;3.70;;
83125;SDS011;73488;47.234;-1.540;2024-03-23T10:19:49;14.07;;;4.38;;
83125;SDS011;73488;47.234;-1.540;2024-03-23T10:22:18;5.28;;;2.28;;
83125;SDS011;73488;47.234;-1.540;2024-03-23T10:24:45;8.07;;;2.80;;
83125;SDS011;73488;47.234;-1.540;2024-03-23T10:27:29;6.03;;;2.45;;
83125;SDS011;73488;47.234;-1.540;2024-03-23T10:29:54;14.95;;;3.17;;
83125;SDS011;73488;47.234;-1.540;2024-03-23T10:32:37;6.10;;;3.17;;
83125;SDS011;73488;47.234;-1.540;2024-03-23T10:37:43;9.48;;;4.22;;
83125;SDS011;73488;47.234;-1.540;2024-03-23T10:40:12;7.65;;;3.60;;
83125;SDS011;73488;47.234;-1.540;2024-03-23T10:42:38;11.27;;;4.20;;
83125;SDS011;73488;47.234;-1.540;2024-03-23T10:45:04;7.53;;;3.92;;
83125;SDS011;73488;47.234;-1.540;2024-03-23T10:47:30;11.65;;;3.97;;
83125;SDS011;73488;47.234;-1.540;2024-03-23T10:49:57;17.92;;;3.88;;
83125;SDS011;73488;47.234;-1.540;2024-03-23T10:52:22;10.43;;;3.65;;
83125;SDS011;73488;47.234;-1.540;2024-03-23T10:54:48;8.77;;;3.67;;
83125;SDS011;73488;47.234;-1.540;2024-03-23T10:57:17;8.77;;;3.17;;
83125;SDS011;73488;47.234;-1.540;2024-03-23T11:02:18;12.03;;;3.67;;
83125;SDS011;73488;47.234;-1.540;2024-03-23T11:04:44;9.50;;;3.20;;
83125;SDS011;73488;47.234;-1.540;2024-03-23T11:09:50;8.75;;;3.65;;
83125;SDS011;73488;47.234;-1.540;2024-03-23T11:12:18;10.85;;;3.50;;
83125;SDS011;73488;47.234;-1.540;2024-03-23T11:14:50;10.38;;;3.65;;
83125;SDS011;73488;47.234;-1.540;2024-03-23T11:17:23;7.43;;;2.88;;
83125;SDS011;73488;47.234;-1.540;2024-03-23T11:19:53;8.68;;;3.20;;
83125;SDS011;73488;47.234;-1.540;2024-03-23T11:22:40;7.50;;;2.95;;
83125;SDS011;73488;47.234;-1.540;2024-03-23T11:25:19;6.10;;;3.00;;
83125;SDS011;73488;47.234;-1.540;2024-03-23T11:27:46;6.03;;;2.30;;
83125;SDS011;73488;47.234;-1.540;2024-03-23T11:30:12;8.57;;;3.05;;
83125;SDS011;73488;47.234;-1.540;2024-03-23T11:32:41;5.18;;;2.50;;
83125;SDS011;73488;47.234;-1.540;2024-03-23T11:35:08;5.13;;;1.98;;
83125;SDS011;73488;47.234;-1.540;2024-03-23T11:37:35;5.15;;;2.30;;
83125;SDS011;73488;47.234;-1.540;2024-03-23T11:40:21;7.65;;;2.42;;
83125;SDS011;73488;47.234;-1.540;2024-03-23T11:42:46;5.43;;;1.98;;
83125;SDS011;73488;47.234;-1.540;2024-03-23T11:45:12;26.33;;;1.95;;
83125;SDS011;73488;47.234;-1.540;2024-03-23T11:47:39;6.40;;;2.40;;
83125;SDS011;73488;47.234;-1.540;2024-03-23T11:50:04;5.03;;;2.40;;
83125;SDS011;73488;47.234;-1.540;2024-03-23T11:52:30;4.15;;;1.85;;
83125;SDS011;73488;47.234;-1.540;2024-03-23T11:55:05;6.25;;;2.25;;
83125;SDS011;73488;47.234;-1.540;2024-03-23T11:57:32;6.70;;;2.22;;
83125;SDS011;73488;47.234;-1.540;2024-03-23T11:59:58;6.20;;;2.33;;
83125;SDS011;73488;47.234;-1.540;2024-03-23T12:02:23;7.63;;;2.10;;
83125;SDS011;73488;47.234;-1.540;2024-03-23T12:04:49;7.78;;;2.80;;
83125;SDS011;73488;47.234;-1.540;2024-03-23T12:07:15;4.95;;;2.55;;
83125;SDS011;73488;47.234;-1.540;2024-03-23T12:09:43;7.28;;;2.40;;
83125;SDS011;73488;47.234;-1.540;2024-03-23T12:12:13;8.13;;;2.38;;
83125;SDS011;73488;47.234;-1.540;2024-03-23T12:14:42;6.32;;;1.85;;
83125;SDS011;73488;47.234;-1.540;2024-03-23T12:17:12;5.78;;;1.98;;
83125;SDS011;73488;47.234;-1.540;2024-03-23T12:19:38;5.63;;;1.95;;
83125;SDS011;73488;47.234;-1.540;2024-03-23T12:22:04;7.28;;;2.35;;
83125;SDS011;73488;47.234;-1.540;2024-03-23T12:24:31;6.45;;;2.63;;
83125;SDS011;73488;47.234;-1.540;2024-03-23T12:26:59;9.23;;;2.58;;
83125;SDS011;73488;47.234;-1.540;2024-03-23T12:29:29;6.38;;;1.42;;
83125;SDS011;73488;47.234;-1.540;2024-03-23T12:31:56;6.45;;;2.15;;
83125;SDS011;73488;47.234;-1.540;2024-03-23T12:34:25;5.15;;;2.35;;
83125;SDS011;73488;47.234;-1.540;2024-03-23T12:36:51;6.60;;;1.60;;
83125;SDS011;73488;47.234;-1.540;2024-03-23T12:39:16;6.78;;;2.33;;
83125;SDS011;73488;47.234;-1.540;2024-03-23T12:41:42;5.05;;;2.28;;
83125;SDS011;73488;47.234;-1.540;2024-03-23T12:44:07;7.30;;;2.42;;
83125;SDS011;73488;47.234;-1.540;2024-03-23T12:49:01;4.05;;;2.10;;
83125;SDS011;73488;47.234;-1.540;2024-03-23T12:51:27;5.85;;;1.95;;
83125;SDS011;73488;47.234;-1.540;2024-03-23T12:53:52;5.40;;;2.65;;
83125;SDS011;73488;47.234;-1.540;2024-03-23T12:56:18;7.05;;;2.08;;
83125;SDS011;73488;47.234;-1.540;2024-03-23T12:58:43;5.82;;;2.30;;
83125;SDS011;73488;47.234;-1.540;2024-03-23T13:01:09;4.45;;;2.15;;
83125;SDS011;73488;47.234;-1.540;2024-03-23T13:03:34;4.72;;;2.13;;
83125;SDS011;73488;47.234;-1.540;2024-03-23T13:06:00;4.38;;;2.30;;
83125;SDS011;73488;47.234;-1.540;2024-03-23T13:08:25;6.07;;;2.17;;
83125;SDS011;73488;47.234;-1.540;2024-03-23T13:10:53;2.95;;;1.35;;
83125;SDS011;73488;47.234;-1.540;2024-03-23T13:13:20;7.10;;;1.85;;
83125;SDS011;73488;47.234;-1.540;2024-03-23T13:15:49;7.20;;;2.60;;
83125;SDS011;73488;47.234;-1.540;2024-03-23T13:18:15;5.43;;;2.05;;
83125;SDS011;73488;47.234;-1.540;2024-03-23T13:20:41;7.38;;;2.15;;
83125;SDS011;73488;47.234;-1.540;2024-03-23T13:23:06;6.65;;;2.20;;
83125;SDS011;73488;47.234;-1.540;2024-03-23T13:25:31;8.15;;;1.83;;
83125;SDS011;73488;47.234;-1.540;2024-03-23T13:27:58;5.32;;;1.85;;
83125;SDS011;73488;47.234;-1.540;2024-03-23T13:30:23;7.38;;;2.30;;
83125;SDS011;73488;47.234;-1.540;2024-03-23T13:32:49;6.65;;;2.00;;
83125;SDS011;73488;47.234;-1.540;2024-03-23T13:35:15;7.38;;;1.75;;
83125;SDS011;73488;47.234;-1.540;2024-03-23T13:37:40;4.38;;;1.40;;
83125;SDS011;73488;47.234;-1.540;2024-03-23T13:40:06;5.85;;;2.65;;
83125;SDS011;73488;47.234;-1.540;2024-03-23T13:42:32;5.50;;;1.80;;
83125;SDS011;73488;47.234;-1.540;2024-03-23T13:44:58;6.40;;;2.25;;
83125;SDS011;73488;47.234;-1.540;2024-03-23T13:47:23;5.00;;;2.20;;
83125;SDS011;73488;47.234;-1.540;2024-03-23T13:49:48;10.77;;;2.38;;
83125;SDS011;73488;47.234;-1.540;2024-03-23T13:52:14;4.43;;;1.65;;
83125;SDS011;73488;47.234;-1.540;2024-03-23T13:54:39;8.38;;;2.15;;
83125;SDS011;73488;47.234;-1.540;2024-03-23T13:57:10;5.60;;;1.88;;
83125;SDS011;73488;47.234;-1.540;2024-03-23T13:59:35;12.25;;;2.10;;
83125;SDS011;73488;47.234;-1.540;2024-03-23T14:02:01;4.00;;;1.98;;
83125;SDS011;73488;47.234;-1.540;2024-03-23T14:04:26;4.63;;;2.20;;
83125;SDS011;73488;47.234;-1.540;2024-03-23T14:06:52;7.63;;;2.25;;
83125;SDS011;73488;47.234;-1.540;2024-03-23T14:09:17;7.05;;;2.10;;
83125;SDS011;73488;47.234;-1.540;2024-03-23T14:11:48;7.78;;;2.50;;
83125;SDS011;73488;47.234;-1.540;2024-03-23T14:14:14;5.25;;;1.80;;
83125;SDS011;73488;47.234;-1.540;2024-03-23T14:16:43;6.07;;;2.67;;
83125;SDS011;73488;47.234;-1.540;2024-03-23T14:19:08;5.07;;;1.90;;
83125;SDS011;73488;47.234;-1.540;2024-03-23T14:21:34;7.50;;;2.22;;
83125;SDS011;73488;47.234;-1.540;2024-03-23T14:24:00;5.93;;;1.95;;
83125;SDS011;73488;47.234;-1.540;2024-03-23T14:26:26;8.57;;;2.08;;
83125;SDS011;73488;47.234;-1.540;2024-03-23T14:28:52;6.00;;;2.42;;
83125;SDS011;73488;47.234;-1.540;2024-03-23T14:31:17;4.07;;;1.75;;
83125;SDS011;73488;47.234;-1.540;2024-03-23T14:33:43;4.93;;;1.63;;
83125;SDS011;73488;47.234;-1.540;2024-03-23T14:36:12;5.97;;;1.90;;
83125;SDS011;73488;47.234;-1.540;2024-03-23T14:38:38;10.27;;;2.10;;
83125;SDS011;73488;47.234;-1.540;2024-03-23T14:41:03;8.57;;;1.52;;
83125;SDS011;73488;47.234;-1.540;2024-03-23T14:43:29;10.27;;;2.63;;
83125;SDS011;73488;47.234;-1.540;2024-03-23T14:46:05;9.00;;;2.33;;
83125;SDS011;73488;47.234;-1.540;2024-03-23T14:48:31;8.68;;;3.03;;
83125;SDS011;73488;47.234;-1.540;2024-03-23T14:50:57;6.65;;;1.85;;
83125;SDS011;73488;47.234;-1.540;2024-03-23T14:53:24;11.98;;;2.70;;
83125;SDS011;73488;47.234;-1.540;2024-03-23T14:55:50;9.90;;;2.15;;
83125;SDS011;73488;47.234;-1.540;2024-03-23T14:58:15;9.77;;;2.45;;
83125;SDS011;73488;47.234;-1.540;2024-03-23T15:00:41;7.18;;;2.20;;
83125;SDS011;73488;47.234;-1.540;2024-03-23T15:03:06;8.20;;;1.27;;
83125;SDS011;73488;47.234;-1.540;2024-03-23T15:05:31;5.10;;;1.65;;
83125;SDS011;73488;47.234;-1.540;2024-03-23T15:07:57;11.73;;;2.55;;
83125;SDS011;73488;47.234;-1.540;2024-03-23T15:10:23;9.25;;;2.55;;
83125;SDS011;73488;47.234;-1.540;2024-03-23T15:12:48;9.90;;;2.70;;
83125;SDS011;73488;47.234;-1.540;2024-03-23T15:15:14;16.17;;;2.53;;
83125;SDS011;73488;47.234;-1.540;2024-03-23T15:17:40;7.75;;;2.58;;
83125;SDS011;73488;47.234;-1.540;2024-03-23T15:20:09;7.13;;;2.42;;
83125;SDS011;73488;47.234;-1.540;2024-03-23T15:22:36;9.23;;;2.70;;
83125;SDS011;73488;47.234;-1.540;2024-03-23T15:25:02;22.73;;;3.15;;
83125;SDS011;73488;47.234;-1.540;2024-03-23T15:27:27;10.15;;;2.60;;
83125;SDS011;73488;47.234;-1.540;2024-03-23T15:29:53;9.82;;;2.30;;
83125;SDS011;73488;47.234;-1.540;2024-03-23T15:32:18;5.85;;;2.03;;
83125;SDS011;73488;47.234;-1.540;2024-03-23T15:34:43;14.00;;;2.35;;
83125;SDS011;73488;47.234;-1.540;2024-03-23T15:37:09;9.25;;;2.30;;